createdAt,value
2018-08-30T00:02:02.111Z,97994.67
2018-08-30T00:04:31.256Z,98004.64
2018-08-30T00:07:00.453Z,98006.84
2018-08-30T00:09:29.727Z,98011.08
2018-08-30T00:11:59.220Z,98009.83
2018-08-30T00:14:28.556Z,98017.75
2018-08-30T00:16:57.531Z,98012.12
2018-08-30T00:19:26.607Z,98015.64
2018-08-30T00:21:55.946Z,98016.53
2018-08-30T00:24:25.142Z,98015.41
2018-08-30T00:26:54.267Z,98015.61
2018-08-30T00:29:23.588Z,98013.27
2018-08-30T00:31:52.852Z,98027.65
2018-08-30T00:34:22.138Z,98018.22
2018-08-30T00:36:51.807Z,98019.67
2018-08-30T00:39:20.751Z,98015.28
2018-08-30T00:41:49.885Z,98013.28
2018-08-30T00:44:19.179Z,98016.39
2018-08-30T00:46:48.521Z,98013.64
2018-08-30T00:49:17.766Z,98017.02
2018-08-30T00:51:46.931Z,98010.55
2018-08-30T00:54:16.107Z,98008.27
2018-08-30T00:56:45.620Z,98008.46
2018-08-30T00:59:14.819Z,98009.20
2018-08-30T01:01:44.099Z,98005.13
2018-08-30T01:04:13.371Z,98005.91
2018-08-30T01:06:42.376Z,97996.95
2018-08-30T01:09:11.719Z,98003.92
2018-08-30T01:11:40.896Z,98000.73
2018-08-30T01:14:10.220Z,98003.27
2018-08-30T01:16:39.263Z,97999.34
2018-08-30T01:19:08.533Z,97998.52
2018-08-30T01:21:37.671Z,98003.97
2018-08-30T01:24:06.978Z,97996.97
2018-08-30T01:26:36.274Z,97997.03
2018-08-30T01:29:05.528Z,97994.48
2018-08-30T01:31:34.872Z,97996.45
2018-08-30T01:34:04.374Z,97997.31
2018-08-30T01:36:33.308Z,98003.05
2018-08-30T01:39:02.668Z,97999.58
2018-08-30T01:41:31.808Z,98002.52
2018-08-30T01:44:00.923Z,97998.06
2018-08-30T01:46:30.324Z,97989.30
2018-08-30T01:48:59.723Z,97997.47
2018-08-30T01:51:29.061Z,98006.63
2018-08-30T01:53:58.523Z,97999.91
2018-08-30T01:56:27.662Z,98007.39
2018-08-30T01:58:57.022Z,98004.33
2018-08-30T02:01:26.267Z,98003.34
2018-08-30T02:03:55.471Z,98005.53
2018-08-30T02:06:24.762Z,98003.45
2018-08-30T02:08:54.211Z,98000.67
2018-08-30T02:11:23.179Z,98003.97
2018-08-30T02:13:52.278Z,98001.72
2018-08-30T02:16:21.475Z,98002.00
2018-08-30T02:18:50.758Z,97997.89
2018-08-30T02:21:19.968Z,97999.28
2018-08-30T02:23:49.166Z,98001.31
2018-08-30T02:26:18.219Z,98006.39
2018-08-30T02:28:47.107Z,98009.22
2018-08-30T02:31:16.489Z,98011.58
2018-08-30T02:33:45.783Z,98010.07
2018-08-30T02:36:15.114Z,98014.28
2018-08-30T02:38:44.610Z,98013.97
2018-08-30T02:41:13.807Z,98011.36
2018-08-30T02:43:43.078Z,98004.43
2018-08-30T02:46:12.412Z,98006.39
2018-08-30T02:48:41.762Z,98006.44
2018-08-30T02:51:10.972Z,98008.38
2018-08-30T02:53:40.034Z,98006.03
2018-08-30T02:56:09.208Z,98009.80
2018-08-30T02:58:38.714Z,98009.16
2018-08-30T03:01:07.840Z,98009.42
2018-08-30T03:03:37.259Z,98006.73
2018-08-30T03:06:06.560Z,98008.49
2018-08-30T03:08:35.861Z,98009.00
2018-08-30T03:11:05.139Z,98010.83
2018-08-30T03:13:34.286Z,98012.16
2018-08-30T03:16:03.347Z,98023.95
2018-08-30T03:18:32.390Z,98017.73
2018-08-30T03:21:01.751Z,98013.41
2018-08-30T03:23:31.185Z,98016.73
2018-08-30T03:26:00.588Z,98017.70
2018-08-30T03:28:29.987Z,98009.31
2018-08-30T03:30:59.003Z,98016.51
2018-08-30T03:33:28.065Z,98015.33
2018-08-30T03:35:57.092Z,98015.17
2018-08-30T03:38:26.371Z,98015.71
2018-08-30T03:40:55.666Z,98024.09
2018-08-30T03:43:25.016Z,98030.25
2018-08-30T03:45:54.247Z,98021.69
2018-08-30T03:48:23.508Z,98025.83
2018-08-30T03:50:52.595Z,98020.05
2018-08-30T03:53:21.943Z,98018.59
2018-08-30T03:55:51.049Z,98016.36
2018-08-30T03:58:20.296Z,98019.25
2018-08-30T04:00:49.243Z,98023.34
2018-08-30T04:03:18.312Z,98024.71
2018-08-30T04:05:47.579Z,98025.83
2018-08-30T04:08:16.595Z,98024.35
2018-08-30T04:10:45.884Z,98024.39
2018-08-30T04:13:14.948Z,98031.62
2018-08-30T04:15:44.292Z,98025.83
2018-08-30T04:18:13.570Z,98034.19
2018-08-30T04:20:42.539Z,98028.86
2018-08-30T04:23:11.699Z,98029.79
2018-08-30T04:25:40.886Z,98032.23
2018-08-30T04:28:10.076Z,98032.84
2018-08-30T04:30:39.236Z,98036.28
2018-08-30T04:33:08.469Z,98037.97
2018-08-30T04:35:37.988Z,98044.47
2018-08-30T04:38:07.271Z,98042.84
2018-08-30T04:40:36.691Z,98039.26
2018-08-30T04:43:05.941Z,98036.38
2018-08-30T04:45:35.085Z,98037.52
2018-08-30T04:48:04.376Z,98044.70
2018-08-30T04:50:33.823Z,98041.34
2018-08-30T04:53:02.968Z,98042.98
2018-08-30T04:55:32.121Z,98042.58
2018-08-30T04:58:01.463Z,98045.57
2018-08-30T05:00:30.728Z,98043.02
2018-08-30T05:02:59.979Z,98039.41
2018-08-30T05:05:29.423Z,98050.56
2018-08-30T05:07:58.727Z,98052.11
2018-08-30T05:10:28.061Z,98049.59
2018-08-30T05:12:57.435Z,98054.22
2018-08-30T05:15:26.631Z,98050.26
2018-08-30T05:17:55.800Z,98048.09
2018-08-30T05:20:25.112Z,98039.67
2018-08-30T05:22:54.147Z,98043.95
2018-08-30T05:25:23.415Z,98038.78
2018-08-30T05:27:52.644Z,98043.70
2018-08-30T05:30:21.630Z,98043.34
2018-08-30T05:32:50.938Z,98043.12
2018-08-30T05:35:20.224Z,98045.81
2018-08-30T05:37:49.548Z,98046.44
2018-08-30T05:40:19.164Z,98041.96
2018-08-30T05:42:48.115Z,98041.00
2018-08-30T05:45:17.395Z,98046.55
2018-08-30T05:47:46.367Z,98043.63
2018-08-30T05:50:15.771Z,98046.03
2018-08-30T05:52:45.163Z,98040.68
2018-08-30T05:55:14.547Z,98041.13
2018-08-30T05:57:43.579Z,98039.77
2018-08-30T06:00:12.880Z,98043.19
2018-08-30T06:02:41.970Z,98040.16
2018-08-30T06:05:11.275Z,98043.30
2018-08-30T06:07:40.410Z,98042.22
2018-08-30T06:10:09.675Z,98049.70
2018-08-30T06:12:38.792Z,98046.44
2018-08-30T06:15:08.200Z,98050.45
2018-08-30T06:17:37.192Z,98051.16
2018-08-30T06:20:06.335Z,98056.72
2018-08-30T06:22:35.547Z,98053.90
2018-08-30T06:25:04.880Z,98054.34
2018-08-30T06:27:34.050Z,98062.33
2018-08-30T06:30:03.547Z,98058.17
2018-08-30T06:32:32.686Z,98061.83
2018-08-30T06:35:01.894Z,98065.51
2018-08-30T06:37:31.127Z,98067.94
2018-08-30T06:40:00.215Z,98067.54
2018-08-30T06:42:29.200Z,98071.09
2018-08-30T06:44:58.403Z,98076.03
2018-08-30T06:47:27.625Z,98077.83
2018-08-30T06:49:56.980Z,98076.59
2018-08-30T06:52:26.028Z,98077.80
2018-08-30T06:54:55.235Z,98079.15
2018-08-30T06:57:24.394Z,98078.29
2018-08-30T06:59:53.598Z,98076.36
2018-08-30T07:02:22.888Z,98081.80
2018-08-30T07:04:51.850Z,98091.48
2018-08-30T07:07:21.000Z,98089.22
2018-08-30T07:09:50.161Z,98092.22
2018-08-30T07:12:19.538Z,98083.97
2018-08-30T07:14:48.913Z,98092.53
2018-08-30T07:17:18.408Z,98093.72
2018-08-30T07:19:47.831Z,98101.09
2018-08-30T07:22:17.067Z,98101.83
2018-08-30T07:24:46.537Z,98096.53
2018-08-30T07:27:15.715Z,98096.33
2018-08-30T07:29:45.103Z,98095.42
2018-08-30T07:32:14.584Z,98094.94
2018-08-30T07:34:43.681Z,98096.48
2018-08-30T07:37:12.630Z,98092.98
2018-08-30T07:39:42.072Z,98094.84
2018-08-30T07:42:11.148Z,98092.64
2018-08-30T07:44:40.467Z,98091.48
2018-08-30T07:47:09.810Z,98092.59
2018-08-30T07:49:39.292Z,98091.47
2018-08-30T07:52:08.296Z,98093.01
2018-08-30T07:54:37.456Z,98093.44
2018-08-30T07:57:06.712Z,98088.31
2018-08-30T07:59:35.949Z,98093.48
2018-08-30T08:02:04.997Z,98090.17
2018-08-30T08:04:34.353Z,98096.80
2018-08-30T08:07:03.555Z,98091.74
2018-08-30T08:09:32.875Z,98093.16
2018-08-30T08:12:02.111Z,98093.91
2018-08-30T08:14:31.492Z,98091.77
2018-08-30T08:17:00.671Z,98090.84
2018-08-30T08:19:29.936Z,98091.92
2018-08-30T08:21:59.250Z,98097.55
2018-08-30T08:24:28.214Z,98097.94
2018-08-30T08:26:57.474Z,98106.59
2018-08-30T08:29:26.734Z,98102.08
2018-08-30T08:31:56.160Z,98100.53
2018-08-30T08:34:25.326Z,98099.07
2018-08-30T08:36:54.649Z,98096.02
2018-08-30T08:39:24.055Z,98098.89
2018-08-30T08:41:53.412Z,98096.80
2018-08-30T08:44:22.759Z,98097.13
2018-08-30T08:46:52.114Z,98092.95
2018-08-30T08:49:21.449Z,98094.53
2018-08-30T08:51:50.637Z,98088.48
2018-08-30T08:54:19.966Z,98088.84
2018-08-30T08:56:49.271Z,98086.87
2018-08-30T08:59:18.631Z,98083.49
2018-08-30T09:01:47.916Z,98088.31
2018-08-30T09:04:17.228Z,98083.19
2018-08-30T09:06:46.509Z,98082.85
2018-08-30T09:09:15.652Z,98085.47
2018-08-30T09:11:45.052Z,98085.27
2018-08-30T09:14:14.381Z,98079.92
2018-08-30T09:16:43.855Z,98079.48
2018-08-30T09:19:13.229Z,98077.70
2018-08-30T09:21:42.652Z,98075.05
2018-08-30T09:24:11.861Z,98075.36
2018-08-30T09:26:40.920Z,98074.67
2018-08-30T09:29:09.858Z,98070.92
2018-08-30T09:31:39.344Z,98069.98
2018-08-30T09:34:08.858Z,98076.27
2018-08-30T09:36:38.202Z,98066.85
2018-08-30T09:39:09.271Z,98072.61
2018-08-30T09:41:38.563Z,98073.22
2018-08-30T09:44:07.891Z,98068.12
2018-08-30T09:46:37.107Z,98068.97
2018-08-30T09:49:06.714Z,98071.58
2018-08-30T09:51:35.995Z,98073.54
2018-08-30T09:54:05.257Z,98065.98
2018-08-30T09:56:34.436Z,98069.68
2018-08-30T09:59:03.890Z,98064.33
2018-08-30T10:01:38.299Z,98060.81
2018-08-30T10:04:07.341Z,98070.05
2018-08-30T10:06:36.560Z,98065.84
2018-08-30T10:09:08.375Z,98068.36
2018-08-30T10:11:37.803Z,98065.03
2018-08-30T10:14:06.788Z,98062.31
2018-08-30T10:16:36.065Z,98063.61
2018-08-30T10:19:05.410Z,98070.75
2018-08-30T10:21:34.762Z,98062.78
2018-08-30T10:24:03.846Z,98064.66
2018-08-30T10:26:33.071Z,98062.83
2018-08-30T10:29:02.643Z,98057.30
2018-08-30T10:31:31.775Z,98049.80
2018-08-30T10:34:00.849Z,98050.94
2018-08-30T10:36:30.079Z,98049.89
2018-08-30T10:38:59.254Z,98044.97
2018-08-30T10:41:28.527Z,98042.86
2018-08-30T10:43:57.933Z,98032.69
2018-08-30T10:46:27.423Z,98036.31
2018-08-30T10:48:56.412Z,98035.80
2018-08-30T10:51:25.744Z,98032.84
2018-08-30T10:53:54.689Z,98025.31
2018-08-30T10:56:24.240Z,98031.64
2018-08-30T10:58:53.680Z,98028.93
2018-08-30T11:01:23.023Z,98029.52
2018-08-30T11:03:52.610Z,98033.13
2018-08-30T11:06:22.183Z,98034.41
2018-08-30T11:08:51.142Z,98027.53
2018-08-30T11:11:20.462Z,98032.86
2018-08-30T11:13:49.899Z,98032.22
2018-08-30T11:16:18.723Z,98023.86
2018-08-30T11:18:47.951Z,98031.77
2018-08-30T11:21:17.250Z,98016.83
2018-08-30T11:23:46.485Z,98027.22
2018-08-30T11:26:15.760Z,98022.74
2018-08-30T11:28:45.105Z,98021.74
2018-08-30T11:31:14.515Z,98022.77
2018-08-30T11:33:43.496Z,98017.95
2018-08-30T11:36:12.612Z,98017.23
2018-08-30T11:38:42.088Z,98012.09
2018-08-30T11:41:11.395Z,98001.88
2018-08-30T11:43:40.860Z,97999.72
2018-08-30T11:46:10.244Z,97994.20
2018-08-30T11:48:39.549Z,97991.48
2018-08-30T11:51:08.812Z,97991.39
2018-08-30T11:53:38.007Z,97989.95
2018-08-30T11:56:07.307Z,97982.03
2018-08-30T11:58:36.693Z,97985.28
2018-08-30T12:01:05.826Z,97988.55
2018-08-30T12:03:35.109Z,97993.88
2018-08-30T12:06:04.419Z,97990.06
2018-08-30T12:08:33.757Z,97987.48
2018-08-30T12:11:03.121Z,97980.31
2018-08-30T12:13:32.216Z,97978.96
2018-08-30T12:16:01.430Z,97979.49
2018-08-30T12:18:30.675Z,97975.55
2018-08-30T12:21:00.019Z,97968.84
2018-08-30T12:23:29.493Z,97968.17
2018-08-30T12:25:58.974Z,97968.33
2018-08-30T12:28:28.469Z,97955.86
2018-08-30T12:30:57.686Z,97956.25
2018-08-30T12:33:27.080Z,97949.58
2018-08-30T12:35:56.336Z,97958.58
2018-08-30T12:38:25.707Z,97952.72
2018-08-30T12:40:54.905Z,97951.39
2018-08-30T12:43:24.492Z,97951.11
2018-08-30T12:45:53.852Z,97946.41
2018-08-30T12:48:22.956Z,97946.67
2018-08-30T12:50:52.469Z,97947.02
2018-08-30T12:53:21.858Z,97944.19
2018-08-30T12:55:50.948Z,97946.18
2018-08-30T12:58:20.121Z,97940.68
2018-08-30T13:00:49.313Z,97942.49
2018-08-30T13:03:18.896Z,97945.48
2018-08-30T13:05:48.475Z,97944.17
2018-08-30T13:08:17.919Z,97943.75
2018-08-30T13:10:47.127Z,97941.05
2018-08-30T13:13:16.046Z,97950.57
2018-08-30T13:15:44.946Z,97941.11
2018-08-30T13:18:14.227Z,97940.44
2018-08-30T13:20:43.563Z,97929.30
2018-08-30T13:23:13.080Z,97935.36
2018-08-30T13:25:42.088Z,97929.50
2018-08-30T13:28:11.600Z,97931.68
2018-08-30T13:30:41.148Z,97929.16
2018-08-30T13:33:10.445Z,97922.41
2018-08-30T13:35:39.523Z,97925.19
2018-08-30T13:38:09.177Z,97932.27
2018-08-30T13:40:38.275Z,97936.16
2018-08-30T13:43:07.597Z,97932.59
2018-08-30T13:45:36.855Z,97933.30
2018-08-30T13:48:06.267Z,97924.47
2018-08-30T13:50:35.773Z,97921.28
2018-08-30T13:53:05.150Z,97925.60
2018-08-30T13:55:34.418Z,97919.11
2018-08-30T13:58:03.236Z,97922.55
2018-08-30T14:00:32.858Z,97919.68
2018-08-30T14:03:01.813Z,97920.81
2018-08-30T14:05:31.335Z,97909.64
2018-08-30T14:08:00.701Z,97915.55
2018-08-30T14:10:29.930Z,97908.37
2018-08-30T14:12:59.282Z,97911.00
2018-08-30T14:15:28.354Z,97905.97
2018-08-30T14:17:57.406Z,97908.36
2018-08-30T14:20:26.588Z,97907.45
2018-08-30T14:22:55.895Z,97905.91
2018-08-30T14:25:25.048Z,97906.19
2018-08-30T14:27:54.028Z,97901.88
2018-08-30T14:30:23.228Z,97911.43
2018-08-30T14:32:52.515Z,97904.84
2018-08-30T14:35:21.767Z,97906.30
2018-08-30T14:37:51.105Z,97903.83
2018-08-30T14:40:19.964Z,97902.17
2018-08-30T14:42:49.309Z,97902.05
2018-08-30T14:45:18.377Z,97906.27
2018-08-30T14:47:47.856Z,97908.14
2018-08-30T14:50:16.973Z,97910.77
2018-08-30T14:52:46.121Z,97912.46
2018-08-30T14:55:15.342Z,97906.91
2018-08-30T14:57:44.757Z,97909.55
2018-08-30T15:00:14.281Z,97914.02
2018-08-30T15:02:43.314Z,97910.38
2018-08-30T15:05:12.876Z,97902.95
2018-08-30T15:07:42.061Z,97909.77
2018-08-30T15:10:11.416Z,97907.88
2018-08-30T15:12:40.617Z,97907.92
2018-08-30T15:15:09.853Z,97910.88
2018-08-30T15:17:38.807Z,97890.68
2018-08-30T15:20:08.298Z,97905.86
2018-08-30T15:22:37.891Z,97912.75
2018-08-30T15:25:07.276Z,97910.41
2018-08-30T15:27:36.707Z,97911.17
2018-08-30T15:30:06.204Z,97906.31
2018-08-30T15:32:35.626Z,97904.87
2018-08-30T15:35:05.041Z,97907.85
2018-08-30T15:37:34.252Z,97906.88
2018-08-30T15:40:03.600Z,97905.68
2018-08-30T15:42:32.655Z,97911.00
2018-08-30T15:45:01.921Z,97913.16
2018-08-30T15:47:31.249Z,97906.29
2018-08-30T15:50:00.543Z,97902.51
2018-08-30T15:52:30.048Z,97902.06
2018-08-30T15:54:59.509Z,97895.55
2018-08-30T15:57:28.645Z,97904.91
2018-08-30T15:59:58.071Z,97904.33
2018-08-30T16:02:27.232Z,97906.38
2018-08-30T16:04:56.539Z,97898.30
2018-08-30T16:07:25.692Z,97899.84
2018-08-30T16:09:54.690Z,97902.61
2018-08-30T16:12:23.914Z,97899.39
2018-08-30T16:14:53.454Z,97898.72
2018-08-30T16:17:22.789Z,97901.94
2018-08-30T16:19:51.747Z,97898.73
2018-08-30T16:22:21.420Z,97900.56
2018-08-30T16:24:51.215Z,97896.32
2018-08-30T16:27:20.471Z,97902.03
2018-08-30T16:29:49.941Z,97910.75
2018-08-30T16:32:19.015Z,97905.95
2018-08-30T16:34:48.162Z,97908.28
2018-08-30T16:37:17.539Z,97907.11
2018-08-30T16:39:46.855Z,97901.03
2018-08-30T16:42:16.122Z,97909.78
2018-08-30T16:44:45.332Z,97908.04
2018-08-30T16:47:14.814Z,97909.68
2018-08-30T16:49:44.536Z,97910.09
2018-08-30T16:52:14.107Z,97916.11
2018-08-30T16:54:43.283Z,97920.80
2018-08-30T16:57:12.571Z,97921.94
2018-08-30T16:59:41.972Z,97919.58
2018-08-30T17:02:11.457Z,97926.08
2018-08-30T17:04:40.631Z,97925.70
2018-08-30T17:07:09.821Z,97928.39
2018-08-30T17:09:40.209Z,97930.28
2018-08-30T17:12:09.629Z,97932.23
2018-08-30T17:14:39.028Z,97930.88
2018-08-30T17:17:08.205Z,97930.55
2018-08-30T17:19:37.257Z,97935.14
2018-08-30T17:22:06.700Z,97936.64
2018-08-30T17:24:35.631Z,97937.23
2018-08-30T17:27:04.595Z,97940.63
2018-08-30T17:29:34.024Z,97939.33
2018-08-30T17:32:03.348Z,97936.41
2018-08-30T17:34:32.630Z,97942.05
2018-08-30T17:37:02.504Z,97946.20
2018-08-30T17:39:31.624Z,97948.84
2018-08-30T17:42:00.772Z,97951.29
2018-08-30T17:44:29.795Z,97952.14
2018-08-30T17:46:58.782Z,97947.00
2018-08-30T17:49:28.025Z,97956.80
2018-08-30T17:51:57.769Z,97956.30
2018-08-30T17:54:27.059Z,97959.80
2018-08-30T17:56:56.317Z,97962.50
2018-08-30T17:59:25.791Z,97965.84
2018-08-30T18:01:58.042Z,97976.23
2018-08-30T18:04:27.356Z,97974.83
2018-08-30T18:06:56.799Z,97976.19
2018-08-30T18:09:26.093Z,97979.13
2018-08-30T18:11:55.752Z,97990.25
2018-08-30T18:14:24.716Z,97984.61
2018-08-30T18:16:53.883Z,97986.91
2018-08-30T18:19:23.238Z,97996.08
2018-08-30T18:21:52.428Z,97994.77
2018-08-30T18:24:21.934Z,98000.86
2018-08-30T18:26:51.249Z,98005.14
2018-08-30T18:29:20.645Z,98007.93
2018-08-30T18:31:49.712Z,98007.75
2018-08-30T18:34:19.116Z,98007.10
2018-08-30T18:36:49.087Z,98005.45
2018-08-30T18:39:18.436Z,98014.88
2018-08-30T18:41:47.711Z,98013.22
2018-08-30T18:44:17.055Z,98017.56
2018-08-30T18:46:46.748Z,98017.08
2018-08-30T18:49:16.179Z,98015.75
2018-08-30T18:51:45.593Z,98017.72
2018-08-30T18:54:14.691Z,98022.09
2018-08-30T18:56:44.418Z,98020.41
2018-08-30T18:59:13.672Z,98019.00
2018-08-30T19:01:43.118Z,98020.89
2018-08-30T19:04:12.792Z,98024.70
2018-08-30T19:06:42.134Z,98024.36
2018-08-30T19:09:12.396Z,98033.78
2018-08-30T19:11:42.568Z,98022.16
2018-08-30T19:14:12.564Z,98029.13
2018-08-30T19:16:46.895Z,98030.13
2018-08-30T19:19:18.152Z,98031.81
2018-08-30T19:21:47.602Z,98026.58
2018-08-30T19:24:21.835Z,98030.06
2018-08-30T19:26:51.205Z,98033.16
2018-08-30T19:29:20.704Z,98035.78
2018-08-30T19:31:49.907Z,98023.97
2018-08-30T19:34:19.389Z,98034.00
2018-08-30T19:36:48.732Z,98033.59
2018-08-30T19:39:18.046Z,98029.96
2018-08-30T19:41:47.230Z,98033.48
2018-08-30T19:44:16.626Z,98038.98
2018-08-30T19:46:45.752Z,98042.54
2018-08-30T19:49:15.133Z,98043.14
2018-08-30T19:51:44.322Z,98046.39
2018-08-30T19:54:13.435Z,98056.93
2018-08-30T19:56:42.444Z,98062.91
2018-08-30T19:59:11.607Z,98067.91
2018-08-30T20:01:41.076Z,98066.67
2018-08-30T20:04:10.267Z,98070.67
2018-08-30T20:06:39.636Z,98064.90
2018-08-30T20:09:09.094Z,98063.53
2018-08-30T20:11:38.380Z,98060.70
2018-08-30T20:14:07.919Z,98060.48
2018-08-30T20:16:37.045Z,98063.52
2018-08-30T20:19:06.558Z,98067.80
2018-08-30T20:21:35.830Z,98077.39
2018-08-30T20:24:05.130Z,98073.66
2018-08-30T20:26:34.337Z,98073.27
2018-08-30T20:29:03.627Z,98073.16
2018-08-30T20:31:32.668Z,98077.59
2018-08-30T20:34:02.020Z,98078.73
2018-08-30T20:36:31.209Z,98079.16
2018-08-30T20:39:00.611Z,98088.41
2018-08-30T20:41:29.999Z,98084.12
2018-08-30T20:43:59.415Z,98082.00
2018-08-30T20:46:28.633Z,98083.06
2018-08-30T20:48:57.971Z,98078.31
2018-08-30T20:51:27.098Z,98075.55
2018-08-30T20:53:56.128Z,98077.10
2018-08-30T20:56:25.632Z,98083.01
2018-08-30T20:58:54.757Z,98078.45
2018-08-30T21:01:24.154Z,98085.07
2018-08-30T21:03:53.184Z,98088.34
2018-08-30T21:06:22.451Z,98084.42
2018-08-30T21:08:51.433Z,98086.94
2018-08-30T21:11:20.614Z,98090.80
2018-08-30T21:13:49.903Z,98090.59
2018-08-30T21:16:19.126Z,98092.16
2018-08-30T21:18:48.359Z,98090.84
2018-08-30T21:21:17.775Z,98092.48
2018-08-30T21:23:46.668Z,98104.66
2018-08-30T21:26:15.899Z,98100.98
2018-08-30T21:28:45.148Z,98093.20
2018-08-30T21:31:14.366Z,98091.59
2018-08-30T21:33:43.754Z,98093.28
2018-08-30T21:36:13.096Z,98095.37
2018-08-30T21:38:42.445Z,98094.44
2018-08-30T21:41:11.795Z,98098.25
2018-08-30T21:43:41.006Z,98095.36
2018-08-30T21:46:10.310Z,98095.50
2018-08-30T21:48:39.687Z,98097.70
2018-08-30T21:51:09.023Z,98103.67
2018-08-30T21:53:38.471Z,98098.19
2018-08-30T21:56:08.068Z,98108.81
2018-08-30T21:58:37.160Z,98110.12
2018-08-30T22:01:06.166Z,98115.86
2018-08-30T22:03:35.407Z,98112.32
2018-08-30T22:06:04.598Z,98116.34
2018-08-30T22:08:33.988Z,98118.63
2018-08-30T22:11:03.395Z,98121.81
2018-08-30T22:13:32.761Z,98116.09
2018-08-30T22:16:02.262Z,98117.30
2018-08-30T22:18:31.599Z,98123.16
2018-08-30T22:21:00.671Z,98123.98
2018-08-30T22:23:29.699Z,98124.72
2018-08-30T22:25:59.188Z,98127.75
2018-08-30T22:28:28.336Z,98125.14
2018-08-30T22:30:57.644Z,98122.64
2018-08-30T22:33:26.957Z,98121.80
2018-08-30T22:35:56.124Z,98121.18
2018-08-30T22:38:25.375Z,98115.59
2018-08-30T22:40:54.720Z,98110.48
2018-08-30T22:43:23.962Z,98110.61
2018-08-30T22:45:53.268Z,98110.34
2018-08-30T22:48:22.496Z,98108.94
2018-08-30T22:50:51.918Z,98112.47
2018-08-30T22:53:21.051Z,98115.70
2018-08-30T22:55:50.414Z,98116.08
2018-08-30T22:58:19.730Z,98116.78
2018-08-30T23:00:48.779Z,98118.51
2018-08-30T23:03:18.075Z,98116.19
2018-08-30T23:05:47.530Z,98115.59
2018-08-30T23:08:16.692Z,98109.98
2018-08-30T23:10:45.723Z,98115.12
2018-08-30T23:13:15.250Z,98114.48
2018-08-30T23:15:44.400Z,98117.27
2018-08-30T23:18:13.745Z,98118.19
2018-08-30T23:20:42.855Z,98114.04
2018-08-30T23:23:12.244Z,98114.23
2018-08-30T23:25:41.530Z,98113.24
2018-08-30T23:28:10.647Z,98115.09
2018-08-30T23:30:40.038Z,98116.98
2018-08-30T23:33:09.355Z,98115.24
2018-08-30T23:35:38.683Z,98122.39
2018-08-30T23:38:08.448Z,98122.28
2018-08-30T23:40:37.817Z,98123.11
2018-08-30T23:43:07.174Z,98115.86
2018-08-30T23:45:36.150Z,98115.50
2018-08-30T23:48:05.423Z,98115.36
2018-08-30T23:50:34.678Z,98122.88
2018-08-30T23:53:03.818Z,98126.17
2018-08-30T23:55:33.136Z,98125.03
2018-08-30T23:58:13.189Z,98132.76
